Time;durP1;ratioP1;P1;durP2;ratioP2;P2;SDS_P1;SDS_P2;PMS_P1;PMS_P2;Temp;Humidity;BMP_temperature;BMP_pressure;BME280_temperature;BME280_humidity;BME280_pressure;Samples;Min_cycle;Max_cycle;Signal;HPM_P1;HPM_P2
2021/09/23 00:01:31;;;;;;;30.67;17.45;;;7.70;99.90;;;;;;6246846;23;20047;-90
2021/09/23 00:04:32;;;;;;;32.78;18.92;;;7.60;99.90;;;;;;6224221;23;20349;-91
2021/09/23 00:07:19;;;;;;;34.10;20.02;;;7.50;99.90;;;;;;6248124;22;20134;-91
2021/09/23 00:10:08;;;;;;;35.72;20.40;;;7.50;99.90;;;;;;6222448;23;20431;-90
2021/09/23 00:12:57;;;;;;;30.77;19.40;;;7.60;99.90;;;;;;6224656;23;20028;-91
2021/09/23 00:15:44;;;;;;;33.95;19.25;;;7.50;99.90;;;;;;6253754;23;20706;-90
2021/09/23 00:18:34;;;;;;;42.13;18.60;;;7.40;99.90;;;;;;6264695;22;20050;-93
2021/09/23 00:21:21;;;;;;;28.38;18.40;;;7.40;99.90;;;;;;6248553;22;20014;-89
2021/09/23 00:24:11;;;;;;;28.50;17.48;;;7.40;99.90;;;;;;6241267;23;20034;-91
2021/09/23 00:26:59;;;;;;;27.02;17.92;;;7.30;99.90;;;;;;6252317;23;20040;-91
2021/09/23 00:29:46;;;;;;;27.40;17.50;;;7.30;99.90;;;;;;6249090;22;20025;-92
2021/09/23 00:32:38;;;;;;;25.58;14.38;;;7.30;99.90;;;;;;6245537;23;20447;-90
2021/09/23 00:35:25;;;;;;;22.42;14.25;;;7.30;99.90;;;;;;6245876;23;20047;-91
2021/09/23 00:38:12;;;;;;;20.60;13.70;;;7.30;99.90;;;;;;6245624;23;20024;-89
2021/09/23 00:41:00;;;;;;;20.25;13.60;;;7.30;99.90;;;;;;6246458;23;20039;-90
2021/09/23 00:43:47;;;;;;;21.30;13.63;;;7.20;99.90;;;;;;6243354;23;20043;-89
2021/09/23 00:46:34;;;;;;;20.50;13.00;;;7.10;99.90;;;;;;6225441;23;20035;-90
2021/09/23 00:49:24;;;;;;;22.63;14.57;;;7.00;99.90;;;;;;6222385;23;20028;-90
2021/09/23 00:52:16;;;;;;;26.35;17.27;;;7.00;99.90;;;;;;6222359;22;20031;-91
2021/09/23 00:55:06;;;;;;;29.45;18.63;;;7.10;99.90;;;;;;6244673;23;20043;-89
2021/09/23 00:57:53;;;;;;;34.17;18.85;;;7.10;99.90;;;;;;6245155;23;20032;-90
2021/09/23 01:00:41;;;;;;;33.97;19.33;;;7.10;99.90;;;;;;6223346;23;20024;-90
2021/09/23 01:03:29;;;;;;;30.17;18.83;;;7.20;99.90;;;;;;6244002;23;20032;-91
2021/09/23 01:06:20;;;;;;;31.17;19.25;;;7.20;99.90;;;;;;6245941;23;20086;-91
2021/09/23 01:09:12;;;;;;;31.05;19.50;;;7.20;99.90;;;;;;6245106;23;20097;-89
2021/09/23 01:12:02;;;;;;;34.75;20.58;;;7.30;99.90;;;;;;6226156;23;20023;-89
2021/09/23 01:14:50;;;;;;;37.30;21.67;;;7.30;99.90;;;;;;6223463;23;20030;-89
2021/09/23 01:17:38;;;;;;;35.63;20.95;;;7.40;99.90;;;;;;6224567;23;20020;-89
2021/09/23 01:20:25;;;;;;;34.95;21.30;;;7.40;99.90;;;;;;6244359;23;20039;-90
2021/09/23 01:23:16;;;;;;;40.85;22.35;;;7.30;99.90;;;;;;6244184;23;20032;-91
2021/09/23 01:26:07;;;;;;;35.58;20.65;;;7.40;99.90;;;;;;6246597;22;20280;-90
2021/09/23 01:28:57;;;;;;;45.85;23.45;;;7.30;99.90;;;;;;6244539;23;20087;-90
2021/09/23 01:31:46;;;;;;;41.92;23.63;;;7.40;99.90;;;;;;6244995;23;20024;-92
2021/09/23 01:34:34;;;;;;;39.08;21.90;;;7.40;99.90;;;;;;6203161;23;20032;-92
2021/09/23 01:37:26;;;;;;;37.50;21.67;;;7.30;99.90;;;;;;6244900;23;20024;-91
2021/09/23 01:40:16;;;;;;;40.92;22.30;;;7.20;99.90;;;;;;6245011;23;20028;-89
2021/09/23 01:43:05;;;;;;;39.08;22.92;;;7.20;99.90;;;;;;6222433;23;20028;-88
2021/09/23 01:45:55;;;;;;;37.85;22.55;;;7.30;99.90;;;;;;6244381;23;20028;-90
2021/09/23 01:48:43;;;;;;;34.53;22.08;;;7.30;99.90;;;;;;6223406;23;20085;-91
2021/09/23 01:51:30;;;;;;;46.22;24.58;;;7.30;99.90;;;;;;6244246;22;20020;-89
2021/09/23 01:54:17;;;;;;;42.58;23.58;;;7.30;99.90;;;;;;6224916;23;20386;-92
2021/09/23 01:57:05;;;;;;;44.28;24.10;;;7.30;99.90;;;;;;6244893;23;20412;-93
2021/09/23 01:59:52;;;;;;;43.10;23.92;;;7.20;99.90;;;;;;6244733;23;20023;-91
2021/09/23 02:02:40;;;;;;;41.53;23.77;;;7.10;99.90;;;;;;6225317;23;20034;-91
2021/09/23 02:05:31;;;;;;;39.13;22.00;;;7.00;99.90;;;;;;6223250;23;20020;-92
2021/09/23 02:08:20;;;;;;;35.17;20.35;;;7.00;99.90;;;;;;6244749;23;20034;-93
2021/09/23 02:11:07;;;;;;;33.20;18.80;;;7.00;99.90;;;;;;6247522;22;20356;-91
2021/09/23 02:13:55;;;;;;;30.98;18.75;;;6.90;99.90;;;;;;6224240;23;20027;-92
2021/09/23 02:16:42;;;;;;;28.33;18.58;;;6.90;99.90;;;;;;6246990;22;20024;-92
2021/09/23 02:19:32;;;;;;;33.63;17.58;;;6.80;99.90;;;;;;6247217;23;20024;-91
2021/09/23 02:22:20;;;;;;;29.35;16.55;;;6.80;99.90;;;;;;6226448;23;20026;-92
2021/09/23 02:25:09;;;;;;;24.88;16.60;;;6.60;99.90;;;;;;6206614;23;20032;-91
2021/09/23 02:27:56;;;;;;;25.70;16.83;;;6.60;99.90;;;;;;6247649;23;20021;-90
2021/09/23 02:30:44;;;;;;;34.35;18.30;;;6.50;99.90;;;;;;6226431;23;20024;-93
2021/09/23 02:33:33;;;;;;;30.52;18.38;;;6.40;99.90;;;;;;6225802;23;20031;-91
2021/09/23 02:36:20;;;;;;;29.88;18.40;;;6.30;99.90;;;;;;6248736;22;20024;-91
2021/09/23 02:39:07;;;;;;;27.92;17.45;;;6.40;99.90;;;;;;6222951;23;20308;-91
2021/09/23 02:41:54;;;;;;;28.55;17.60;;;6.40;99.90;;;;;;6245928;23;20032;-91
2021/09/23 02:44:42;;;;;;;33.03;19.33;;;6.40;99.90;;;;;;6246569;23;20093;-90
2021/09/23 02:47:29;;;;;;;29.48;18.08;;;6.40;99.90;;;;;;6225107;23;20028;-91
2021/09/23 02:50:16;;;;;;;31.13;19.52;;;6.40;99.90;;;;;;6245076;23;20043;-92
2021/09/23 02:53:06;;;;;;;38.65;20.52;;;6.30;99.90;;;;;;6248319;22;20024;-91
2021/09/23 02:55:53;;;;;;;40.00;24.02;;;6.40;99.90;;;;;;6224277;23;20024;-92
2021/09/23 02:58:40;;;;;;;39.53;22.60;;;6.50;99.90;;;;;;6244731;23;20031;-92
2021/09/23 03:01:37;;;;;;;44.60;22.95;;;6.50;99.90;;;;;;6223435;23;20429;-91
2021/09/23 03:04:25;;;;;;;44.05;22.75;;;6.50;99.90;;;;;;6246491;23;20043;-90
2021/09/23 03:07:15;;;;;;;41.50;22.77;;;6.40;99.90;;;;;;6246015;23;20028;-92
2021/09/23 03:10:04;;;;;;;42.38;21.00;;;6.30;99.90;;;;;;6250739;22;20020;-89
2021/09/23 03:12:52;;;;;;;43.28;21.83;;;6.30;99.90;;;;;;6262629;22;20016;-92
2021/09/23 03:15:41;;;;;;;46.65;22.85;;;6.30;99.90;;;;;;6269178;22;20018;-92
2021/09/23 03:18:28;;;;;;;38.85;22.58;;;6.30;99.90;;;;;;6215443;23;20038;-92
2021/09/23 03:21:16;;;;;;;40.63;22.80;;;6.30;99.90;;;;;;6246669;23;20028;-91
2021/09/23 03:24:05;;;;;;;36.50;20.35;;;6.30;99.90;;;;;;6246878;23;20028;-93
2021/09/23 03:26:52;;;;;;;37.63;20.05;;;6.20;99.90;;;;;;6245389;23;20028;-90
2021/09/23 03:29:40;;;;;;;38.38;21.38;;;6.10;99.90;;;;;;6246628;23;20028;-90
2021/09/23 03:32:28;;;;;;;40.42;21.55;;;6.00;99.90;;;;;;6225527;23;20033;-92
2021/09/23 03:35:17;;;;;;;39.55;22.35;;;6.10;99.90;;;;;;6245481;23;20093;-90
2021/09/23 03:38:07;;;;;;;44.75;22.65;;;6.10;99.90;;;;;;6245140;23;20028;-91
2021/09/23 03:40:54;;;;;;;46.35;22.48;;;6.20;99.90;;;;;;6246190;23;20051;-91
2021/09/23 03:43:41;;;;;;;45.20;23.75;;;6.20;99.90;;;;;;6247012;23;20028;-90
2021/09/23 03:46:29;;;;;;;48.67;24.60;;;6.10;99.90;;;;;;6247140;23;20056;-92
2021/09/23 03:49:17;;;;;;;44.15;23.58;;;6.00;99.90;;;;;;6244851;23;20028;-90
2021/09/23 03:52:07;;;;;;;44.05;23.75;;;6.00;99.90;;;;;;6246867;22;20078;-92
2021/09/23 03:54:54;;;;;;;36.08;20.88;;;6.00;99.90;;;;;;6246493;23;20165;-90
2021/09/23 03:57:44;;;;;;;34.72;18.77;;;6.10;99.90;;;;;;6246171;23;20047;-93
2021/09/23 04:00:31;;;;;;;32.85;17.83;;;6.20;99.90;;;;;;6247255;22;20024;-91
2021/09/23 04:07:36;;;;;;;37.22;19.00;;;6.00;99.90;;;;;;6247432;23;20000;-92
2021/09/23 04:10:24;;;;;;;35.17;19.52;;;5.90;99.90;;;;;;6250794;23;20166;-90
2021/09/23 04:13:11;;;;;;;41.17;20.75;;;5.80;99.90;;;;;;6224297;23;20027;-90
2021/09/23 04:15:59;;;;;;;37.08;19.33;;;5.80;99.90;;;;;;6246354;23;20032;-92
2021/09/23 04:18:47;;;;;;;53.33;26.05;;;5.80;99.90;;;;;;6252372;23;20024;-91
2021/09/23 04:21:36;;;;;;;45.97;21.63;;;5.90;99.90;;;;;;6228924;23;20054;-90
2021/09/23 04:24:24;;;;;;;39.15;22.02;;;6.00;99.90;;;;;;6248507;23;20308;-90
2021/09/23 04:27:14;;;;;;;50.35;23.23;;;5.90;99.90;;;;;;6224679;23;20399;-92
2021/09/23 04:30:06;;;;;;;57.63;26.80;;;5.80;99.90;;;;;;6245811;23;20035;-90
2021/09/23 04:32:55;;;;;;;68.80;30.17;;;5.80;99.90;;;;;;6245358;23;20035;-88
2021/09/23 04:35:45;;;;;;;47.55;25.35;;;5.90;99.90;;;;;;6244313;23;20024;-85
2021/09/23 04:38:34;;;;;;;50.55;23.92;;;6.00;99.90;;;;;;6245523;22;20024;-86
2021/09/23 04:41:22;;;;;;;38.70;21.60;;;6.00;99.90;;;;;;6244008;23;20035;-86
2021/09/23 04:44:11;;;;;;;37.92;21.45;;;5.80;99.90;;;;;;6243693;23;20035;-85
2021/09/23 04:47:02;;;;;;;43.95;22.00;;;5.70;99.90;;;;;;6243820;23;20020;-84
2021/09/23 04:49:50;;;;;;;43.38;22.58;;;5.70;99.90;;;;;;6247495;23;20024;-87
2021/09/23 04:52:40;;;;;;;50.95;24.45;;;5.70;99.90;;;;;;6258022;22;20039;-89
2021/09/23 04:55:27;;;;;;;54.25;26.45;;;5.60;99.90;;;;;;6298363;22;20098;-91
2021/09/23 04:58:15;;;;;;;61.83;26.92;;;5.60;99.90;;;;;;6295172;22;20050;-92
2021/09/23 05:01:02;;;;;;;61.22;27.92;;;5.60;99.90;;;;;;6282381;22;20047;-90
2021/09/23 05:03:52;;;;;;;58.55;29.38;;;5.60;99.90;;;;;;6278924;22;20506;-91
2021/09/23 05:06:40;;;;;;;92.57;37.60;;;5.70;99.90;;;;;;6280212;22;20028;-88
2021/09/23 05:09:30;;;;;;;86.75;39.40;;;5.90;99.90;;;;;;6275644;22;20038;-87
2021/09/23 05:12:18;;;;;;;80.45;33.55;;;6.20;99.90;;;;;;6275155;22;20098;-90
2021/09/23 05:15:11;;;;;;;84.28;33.67;;;6.30;99.90;;;;;;6272529;22;20024;-88
2021/09/23 05:18:01;;;;;;;79.05;35.15;;;6.30;99.90;;;;;;6254082;22;20031;-88
2021/09/23 05:20:51;;;;;;;88.32;36.03;;;6.30;99.90;;;;;;6276825;22;20043;-90
2021/09/23 05:23:39;;;;;;;93.35;39.63;;;6.50;99.90;;;;;;6276330;22;20027;-90
2021/09/23 05:26:26;;;;;;;90.90;39.13;;;6.60;99.90;;;;;;6277672;22;20024;-89
2021/09/23 05:29:14;;;;;;;77.25;35.65;;;6.70;99.90;;;;;;6268460;22;20046;-91
2021/09/23 05:34:59;;;;;;;84.15;33.30;;;6.60;99.90;;;;;;6330571;22;20031;-90
2021/09/23 05:37:46;;;;;;;76.70;32.03;;;6.50;99.90;;;;;;6300660;22;20043;-92
2021/09/23 05:40:34;;;;;;;68.60;30.38;;;6.50;99.90;;;;;;6271820;22;20098;-91
2021/09/23 05:43:22;;;;;;;55.20;27.80;;;6.50;99.90;;;;;;6309941;22;20030;-89
2021/09/23 05:46:12;;;;;;;51.08;25.23;;;6.50;99.90;;;;;;6310508;22;20037;-88
2021/09/23 05:48:59;;;;;;;48.40;24.25;;;6.40;99.90;;;;;;6309384;22;20421;-90
2021/09/23 05:51:51;;;;;;;52.58;26.73;;;6.40;99.90;;;;;;6283949;22;20468;-88
2021/09/23 05:54:39;;;;;;;69.82;31.48;;;6.30;99.90;;;;;;6284570;22;20023;-89
2021/09/23 05:57:33;;;;;;;73.63;34.28;;;6.60;99.90;;;;;;6304614;22;20034;-88
2021/09/23 06:00:22;;;;;;;78.72;36.28;;;7.00;99.90;;;;;;6305936;22;20042;-90
2021/09/23 06:03:12;;;;;;;82.88;37.72;;;7.20;99.90;;;;;;6283674;22;20425;-89
2021/09/23 06:06:00;;;;;;;86.45;37.55;;;7.60;99.90;;;;;;6306447;22;20054;-90
2021/09/23 06:08:47;;;;;;;72.65;36.08;;;7.80;99.90;;;;;;6284535;22;20740;-92
2021/09/23 06:11:39;;;;;;;68.00;33.30;;;8.00;99.90;;;;;;6283702;22;20087;-88
2021/09/23 06:14:28;;;;;;;57.88;30.15;;;8.10;99.90;;;;;;6285115;22;20011;-90
2021/09/23 06:17:18;;;;;;;53.08;28.83;;;8.10;99.90;;;;;;6288095;22;20088;-90
2021/09/23 06:20:10;;;;;;;51.08;28.95;;;8.20;99.90;;;;;;6307214;22;20019;-88
2021/09/23 06:22:57;;;;;;;52.00;27.67;;;8.40;99.90;;;;;;6263289;22;20024;-89
2021/09/23 06:25:53;;;;;;;47.35;26.63;;;8.70;99.90;;;;;;6306229;22;20037;-89
2021/09/23 06:28:48;;;;;;;39.85;23.35;;;9.00;99.90;;;;;;6272529;22;20393;-90
2021/09/23 06:31:36;;;;;;;36.72;22.38;;;9.20;99.90;;;;;;6310219;22;20028;-87
2021/09/23 06:34:29;;;;;;;44.65;22.95;;;9.40;99.90;;;;;;6287111;22;20048;-88
2021/09/23 06:37:16;;;;;;;33.90;20.92;;;9.60;99.90;;;;;;6267913;22;20092;-91
2021/09/23 06:40:08;;;;;;;32.63;18.85;;;9.70;99.90;;;;;;6318316;22;20038;-89
2021/09/23 06:43:01;;;;;;;23.08;16.52;;;9.90;99.90;;;;;;6290182;22;20015;-88
2021/09/23 06:45:50;;;;;;;21.45;15.52;;;9.90;99.90;;;;;;6287367;22;20034;-87
2021/09/23 06:48:40;;;;;;;21.23;14.60;;;10.00;99.90;;;;;;6287774;22;20075;-89
2021/09/23 06:51:30;;;;;;;24.40;15.25;;;10.10;99.90;;;;;;6264741;22;20038;-88
2021/09/23 06:54:31;;;;;;;22.25;14.57;;;10.30;99.90;;;;;;6271568;22;20023;-88
2021/09/23 06:57:22;;;;;;;19.15;12.95;;;10.50;99.90;;;;;;6307790;22;20030;-89
2021/09/23 07:00:10;;;;;;;21.15;12.18;;;10.70;99.90;;;;;;6309434;22;20098;-88
2021/09/23 07:02:57;;;;;;;16.45;11.60;;;10.80;99.90;;;;;;6312078;22;20030;-92
2021/09/23 07:05:45;;;;;;;16.88;11.38;;;11.10;99.90;;;;;;6289653;22;20023;-88
2021/09/23 07:08:38;;;;;;;17.67;11.27;;;11.40;99.90;;;;;;6291065;22;20373;-91
2021/09/23 07:11:25;;;;;;;16.95;11.13;;;11.50;99.90;;;;;;6287591;22;20273;-91
2021/09/23 07:14:12;;;;;;;17.23;10.93;;;11.50;99.90;;;;;;6288576;22;20051;-92
2021/09/23 07:17:00;;;;;;;16.95;9.88;;;11.60;99.90;;;;;;6291244;22;20426;-91
2021/09/23 07:20:01;;;;;;;;;;;;;;;;;;;;;
2021/09/23 07:23:32;;;;;;;17.45;10.35;;;11.60;99.90;;;;;;6301686;22;20093;-88
2021/09/23 07:26:23;;;;;;;13.63;9.90;;;11.60;99.90;;;;;;6307348;22;20027;-89
2021/09/23 07:29:14;;;;;;;14.65;8.73;;;11.60;99.90;;;;;;6314335;22;20042;-90
2021/09/23 07:32:03;;;;;;;10.70;8.13;;;11.80;99.90;;;;;;6290307;22;20353;-87
2021/09/23 07:34:50;;;;;;;13.35;7.63;;;12.20;99.90;;;;;;6306944;22;20023;-89
2021/09/23 07:37:43;;;;;;;11.10;7.60;;;12.60;99.90;;;;;;6311209;22;20431;-88
2021/09/23 07:40:30;;;;;;;11.27;7.25;;;12.70;99.90;;;;;;6289297;22;20019;-90
2021/09/23 07:43:17;;;;;;;10.10;7.00;;;12.70;99.90;;;;;;6267452;22;20113;-90
2021/09/23 07:46:07;;;;;;;11.15;6.82;;;12.90;99.90;;;;;;6268597;22;20157;-91
2021/09/23 07:48:56;;;;;;;11.95;7.10;;;13.00;99.90;;;;;;6315167;22;20030;-91
2021/09/23 07:51:55;;;;;;;8.88;6.95;;;13.00;99.90;;;;;;6314678;22;20412;-91
2021/09/23 07:55:13;;;;;;;;;;;;;;;;;;;;;
2021/09/23 07:58:13;;;;;;;11.63;6.57;;;13.20;99.90;;;;;;6293777;22;20023;-90
2021/09/23 08:01:08;;;;;;;10.55;6.90;;;13.40;99.90;;;;;;6297123;22;20019;-90
2021/09/23 08:04:09;;;;;;;8.73;6.13;;;13.60;99.90;;;;;;6290015;22;20019;-92
2021/09/23 08:07:29;;;;;;;11.00;5.47;;;14.10;99.90;;;;;;6291185;22;20104;-91
2021/09/23 08:10:54;;;;;;;9.15;5.00;;;15.20;99.90;;;;;;6290983;22;20023;-91
2021/09/23 08:14:01;;;;;;;9.07;3.90;;;16.70;99.90;;;;;;6313216;22;20023;-91
2021/09/23 08:16:54;;;;;;;5.28;3.67;;;18.60;99.90;;;;;;6321486;22;20033;-89
2021/09/23 08:19:46;;;;;;;6.13;3.78;;;19.70;99.90;;;;;;6269094;22;20050;-89
2021/09/23 08:22:37;;;;;;;6.82;4.05;;;20.50;93.50;;;;;;6296063;22;20023;-90
2021/09/23 08:25:27;;;;;;;6.07;3.63;;;21.50;84.40;;;;;;6304243;22;20027;-91
2021/09/23 08:28:23;;;;;;;5.75;3.80;;;21.70;79.20;;;;;;6333004;22;20043;-93
2021/09/23 08:31:25;;;;;;;8.02;4.00;;;22.00;79.60;;;;;;6328793;22;20007;-90
2021/09/23 08:34:33;;;;;;;5.82;3.65;;;22.10;75.20;;;;;;6275835;22;20067;-88
2021/09/23 08:38:18;;;;;;;;;;;;;;;;;;;;;
2021/09/23 08:41:40;;;;;;;5.32;3.60;;;22.90;73.30;;;;;;6311824;22;20027;-92
2021/09/23 08:44:57;;;;;;;5.18;3.10;;;23.70;67.50;;;;;;6289894;22;20448;-92
2021/09/23 08:48:03;;;;;;;4.60;2.95;;;23.40;67.60;;;;;;6288114;22;20030;-91
2021/09/23 08:55:02;;;;;;;;;;;;;;;;;;;;;
2021/09/23 08:58:14;;;;;;;6.43;3.05;;;23.50;61.30;;;;;;6310105;22;20110;-89
2021/09/23 09:01:10;;;;;;;6.70;3.08;;;23.60;61.50;;;;;;6288823;22;20026;-88
2021/09/23 09:04:04;;;;;;;5.28;2.97;;;23.60;61.40;;;;;;6290232;22;20023;-91
2021/09/23 09:07:01;;;;;;;4.95;2.38;;;23.30;60.70;;;;;;6267403;22;20038;-92
2021/09/23 09:09:48;;;;;;;3.50;1.77;;;22.80;60.10;;;;;;6296140;22;20027;-91
2021/09/23 09:12:48;;;;;;;5.68;2.17;;;22.60;60.60;;;;;;6271164;22;20023;-90
2021/09/23 09:15:46;;;;;;;3.08;2.00;;;22.40;61.90;;;;;;6268978;22;20211;-91
2021/09/23 09:18:54;;;;;;;2.50;1.75;;;22.80;61.00;;;;;;6292132;22;20023;-90
2021/09/23 09:21:40;;;;;;;3.00;1.80;;;23.60;57.80;;;;;;6251864;23;20039;-90
2021/09/23 09:24:38;;;;;;;3.35;1.90;;;24.20;57.00;;;;;;6205071;23;20451;-90
2021/09/23 09:27:38;;;;;;;2.42;1.75;;;24.90;54.10;;;;;;6248922;23;20023;-89
2021/09/23 09:30:33;;;;;;;2.65;1.35;;;24.30;54.10;;;;;;6260114;22;20039;-90
2021/09/23 09:33:23;;;;;;;2.65;1.73;;;24.10;54.60;;;;;;6246707;23;20035;-90
2021/09/23 09:36:28;;;;;;;2.28;1.55;;;23.90;53.70;;;;;;6223731;23;20032;-90
2021/09/23 09:39:23;;;;;;;2.53;1.48;;;23.90;54.80;;;;;;6245281;23;20339;-89
2021/09/23 09:42:16;;;;;;;3.13;2.30;;;24.10;55.00;;;;;;6245222;23;20047;-92
2021/09/23 09:45:18;;;;;;;3.45;1.58;;;23.90;56.40;;;;;;6254310;23;20035;-92
2021/09/23 09:50:47;;;;;;;3.08;2.00;;;24.60;52.80;;;;;;6225134;22;20412;-88
2021/09/23 09:54:03;;;;;;;6.57;1.73;;;24.10;52.80;;;;;;6225592;22;20418;-89
2021/09/23 09:57:04;;;;;;;3.25;1.60;;;23.80;53.60;;;;;;6219683;23;20169;-90
2021/09/23 10:00:01;;;;;;;7.93;2.08;;;23.40;54.30;;;;;;6244372;23;20112;-89
2021/09/23 10:02:54;;;;;;;3.33;1.80;;;23.30;55.50;;;;;;6248918;22;20426;-90
2021/09/23 10:05:44;;;;;;;3.97;3.17;;;23.50;55.70;;;;;;6278442;22;20028;-90
2021/09/23 10:09:03;;;;;;;5.00;2.20;;;23.70;55.30;;;;;;6279890;22;20084;-87
2021/09/23 10:11:55;;;;;;;3.92;2.28;;;23.80;54.70;;;;;;6285382;22;20019;-90
2021/09/23 10:14:46;;;;;;;4.72;2.15;;;23.90;54.00;;;;;;6276675;22;20070;-92
2021/09/23 10:17:36;;;;;;;2.75;1.70;;;24.30;53.50;;;;;;6281421;22;20024;-91
2021/09/23 10:20:33;;;;;;;3.13;1.98;;;24.70;52.50;;;;;;6278044;22;20024;-91
2021/09/23 10:23:50;;;;;;;2.25;1.90;;;25.00;52.30;;;;;;6232697;22;20023;-92
2021/09/23 10:26:42;;;;;;;2.08;1.63;;;25.60;50.80;;;;;;6256253;22;20023;-91
2021/09/23 10:29:30;;;;;;;;;;;25.40;51.50;;;;;;6274775;22;20094;-89
2021/09/23 10:32:26;;;;;;;3.50;2.20;;;25.20;51.60;;;;;;6277289;22;20273;-93
2021/09/23 10:35:22;;;;;;;3.30;2.05;;;25.70;51.40;;;;;;6282107;22;20032;-91
2021/09/23 10:38:12;;;;;;;2.00;1.65;;;26.40;49.30;;;;;;6278819;22;20034;-89
2021/09/23 10:41:05;;;;;;;5.35;2.03;;;26.50;48.40;;;;;;6276272;22;20023;-89
2021/09/23 10:43:56;;;;;;;4.13;2.03;;;26.70;47.70;;;;;;6279501;22;20031;-90
2021/09/23 10:46:44;;;;;;;2.45;1.88;;;26.40;48.50;;;;;;6280155;22;20031;-90
2021/09/23 10:49:44;;;;;;;7.38;2.72;;;26.50;49.80;;;;;;6280018;22;20023;-89
2021/09/23 10:52:41;;;;;;;3.63;1.98;;;25.90;50.10;;;;;;6279874;22;20016;-93
2021/09/23 10:55:32;;;;;;;2.30;1.85;;;26.20;49.50;;;;;;6274610;22;20024;-89
2021/09/23 10:58:21;;;;;;;2.55;2.00;;;26.40;50.40;;;;;;6273632;22;20019;-91
2021/09/23 11:01:21;;;;;;;4.15;2.42;;;27.20;50.10;;;;;;6274369;22;20024;-89
2021/09/23 11:04:16;;;;;;;3.53;1.80;;;28.50;47.10;;;;;;6274808;22;20034;-90
2021/09/23 11:07:06;;;;;;;3.58;1.95;;;28.90;47.20;;;;;;6275510;22;20392;-91
2021/09/23 11:10:17;;;;;;;2.33;1.83;;;29.50;44.00;;;;;;6275460;22;20023;-93
2021/09/23 11:13:05;;;;;;;2.28;1.85;;;29.90;43.80;;;;;;6278965;22;20024;-89
2021/09/23 11:15:54;;;;;;;4.70;2.13;;;29.60;43.40;;;;;;6279656;22;20111;-91
2021/09/23 11:18:44;;;;;;;13.93;1.77;;;29.50;44.30;;;;;;6259297;22;20279;-89
2021/09/23 11:21:31;;;;;;;3.15;1.40;;;29.10;44.10;;;;;;6276539;22;20035;-89
2021/09/23 11:24:26;;;;;;;2.00;1.60;;;28.70;46.70;;;;;;6280771;22;20024;-87
2021/09/23 11:27:13;;;;;;;;;;;29.40;41.80;;;;;;6282288;22;20023;-90
2021/09/23 11:30:07;;;;;;;1.92;1.48;;;29.50;40.80;;;;;;6282726;22;19941;-91
2021/09/23 11:33:00;;;;;;;2.88;1.40;;;29.50;39.30;;;;;;6277563;22;20449;-90
2021/09/23 11:35:56;;;;;;;1.75;1.25;;;30.20;41.40;;;;;;6282419;22;20020;-90
2021/09/23 11:38:54;;;;;;;2.47;1.55;;;31.00;37.10;;;;;;6266280;22;20023;-88
2021/09/23 11:41:41;;;;;;;3.28;1.50;;;31.30;37.20;;;;;;6279803;22;20023;-89
2021/09/23 11:44:32;;;;;;;3.85;2.55;;;31.80;36.20;;;;;;6282038;22;20028;-90
2021/09/23 11:47:57;;;;;;;1.45;1.30;;;32.40;35.20;;;;;;6283325;22;20039;-92
2021/09/23 11:50:47;;;;;;;2.95;1.20;;;31.70;35.50;;;;;;6279507;22;20023;-91
2021/09/23 11:53:56;;;;;;;1.58;1.27;;;31.20;34.60;;;;;;6281966;22;20032;-90
2021/09/23 11:56:57;;;;;;;2.50;1.58;;;31.00;35.50;;;;;;6281410;22;20019;-89
2021/09/23 12:00:11;;;;;;;5.57;1.38;;;31.00;36.60;;;;;;6285728;22;20414;-90
2021/09/23 12:03:28;;;;;;;2.70;1.60;;;31.60;35.00;;;;;;6289096;22;20024;-92
2021/09/23 12:06:29;;;;;;;1.92;1.17;;;31.10;36.30;;;;;;6251931;22;20030;-91
2021/09/23 12:09:25;;;;;;;1.80;1.30;;;30.00;37.10;;;;;;6248227;23;20438;-90
2021/09/23 12:12:30;;;;;;;1.92;1.58;;;29.50;38.70;;;;;;6247365;23;20020;-90
2021/09/23 12:15:23;;;;;;;2.47;1.55;;;29.50;38.10;;;;;;6217491;23;20028;-91
2021/09/23 12:18:12;;;;;;;2.63;1.58;;;29.20;38.80;;;;;;6249841;23;20307;-91
2021/09/23 12:21:18;;;;;;;2.33;1.58;;;29.10;39.10;;;;;;6210128;23;20027;-92
2021/09/23 12:24:10;;;;;;;3.05;1.55;;;29.80;39.00;;;;;;6228436;23;20120;-89
2021/09/23 12:27:03;;;;;;;2.35;1.35;;;30.20;38.10;;;;;;6223524;23;20038;-90
2021/09/23 12:29:58;;;;;;;2.28;1.60;;;30.20;38.80;;;;;;6225715;23;20039;-88
2021/09/23 12:32:45;;;;;;;2.05;1.65;;;29.50;38.40;;;;;;6229653;23;20340;-89
2021/09/23 12:35:34;;;;;;;5.75;1.75;;;29.40;39.60;;;;;;6203162;23;20099;-89
2021/09/23 12:38:28;;;;;;;3.20;1.60;;;30.00;38.90;;;;;;6225217;23;20055;-85
2021/09/23 12:41:24;;;;;;;3.22;1.80;;;29.60;40.00;;;;;;6245834;23;20420;-89
2021/09/23 12:44:14;;;;;;;4.03;1.77;;;29.70;38.60;;;;;;6228767;22;20030;-90
2021/09/23 12:47:16;;;;;;;3.35;2.20;;;29.90;39.10;;;;;;6225958;23;20086;-90
2021/09/23 12:50:07;;;;;;;1.70;1.30;;;30.50;38.50;;;;;;6225728;23;20400;-90
2021/09/23 12:52:56;;;;;;;2.83;1.58;;;29.60;40.50;;;;;;6226640;23;20028;-88
2021/09/23 12:55:44;;;;;;;2.35;1.73;;;29.20;39.90;;;;;;6247191;23;20020;-90
2021/09/23 12:58:31;;;;;;;2.15;1.55;;;28.90;41.10;;;;;;6250560;23;20012;-90
2021/09/23 13:01:19;;;;;;;2.17;1.52;;;29.30;40.70;;;;;;6248810;23;20266;-90
2021/09/23 13:04:20;;;;;;;1.70;1.58;;;30.30;39.70;;;;;;6243968;23;20023;-89
2021/09/23 13:07:21;;;;;;;5.10;1.70;;;30.30;40.50;;;;;;6268456;22;20031;-88
2021/09/23 13:10:13;;;;;;;3.70;1.90;;;31.30;38.30;;;;;;6275648;22;20023;-90
2021/09/23 13:13:05;;;;;;;1.85;1.30;;;31.70;37.50;;;;;;6275505;22;20449;-90
2021/09/23 13:15:53;;;;;;;1.90;1.60;;;32.20;37.50;;;;;;6254725;22;20023;-89
2021/09/23 13:18:42;;;;;;;1.88;1.75;;;31.70;37.40;;;;;;6275399;22;20304;-89
2021/09/23 13:21:33;;;;;;;4.22;1.98;;;30.30;38.60;;;;;;6254859;22;20030;-90
2021/09/23 13:24:20;;;;;;;3.05;1.63;;;29.90;38.80;;;;;;6213163;22;20023;-91
2021/09/23 13:27:07;;;;;;;4.05;1.55;;;30.50;38.40;;;;;;6272541;22;20043;-91
2021/09/23 13:29:55;;;;;;;1.60;1.50;;;31.50;38.40;;;;;;6274565;22;20029;-91
2021/09/23 13:32:44;;;;;;;1.63;1.40;;;32.20;40.20;;;;;;6274143;22;20019;-90
2021/09/23 13:35:31;;;;;;;2.90;1.30;;;33.40;34.90;;;;;;6252456;22;20024;-91
2021/09/23 13:38:27;;;;;;;4.03;1.50;;;33.40;35.90;;;;;;6275095;22;20074;-89
2021/09/23 13:41:14;;;;;;;2.78;1.60;;;33.20;34.70;;;;;;6273971;22;20306;-92
2021/09/23 13:44:02;;;;;;;1.70;1.60;;;33.20;38.10;;;;;;6273823;22;20024;-91
2021/09/23 13:46:49;;;;;;;2.63;1.70;;;33.80;35.70;;;;;;6252189;22;20028;-93
2021/09/23 13:49:42;;;;;;;4.70;1.50;;;34.20;33.40;;;;;;6277148;22;20042;-91
2021/09/23 13:52:34;;;;;;;2.17;1.38;;;34.50;32.80;;;;;;6274965;22;20027;-90
2021/09/23 13:55:22;;;;;;;1.58;1.48;;;35.20;33.40;;;;;;6275396;22;20024;-89
2021/09/23 13:58:09;;;;;;;1.50;1.40;;;36.10;32.30;;;;;;6273001;22;20470;-90
2021/09/23 14:00:59;;;;;;;5.70;1.52;;;35.70;29.10;;;;;;6255954;22;20074;-90
2021/09/23 14:03:47;;;;;;;4.22;1.60;;;35.90;30.90;;;;;;6275666;22;20322;-90
2021/09/23 14:06:34;;;;;;;3.05;1.63;;;35.40;33.10;;;;;;6254556;22;20023;-89
2021/09/23 14:09:22;;;;;;;2.45;1.58;;;34.70;33.70;;;;;;6253410;22;20023;-91
2021/09/23 14:12:11;;;;;;;3.85;1.80;;;34.20;34.50;;;;;;6276366;22;20031;-93
2021/09/23 14:14:58;;;;;;;14.85;2.05;;;34.40;34.60;;;;;;6278710;22;20027;-91
2021/09/23 14:17:47;;;;;;;3.80;1.85;;;34.60;34.40;;;;;;6255935;22;20450;-91
2021/09/23 14:20:50;;;;;;;4.05;1.90;;;33.80;36.30;;;;;;6275757;22;20035;-90
2021/09/23 14:23:38;;;;;;;6.18;2.05;;;34.50;34.60;;;;;;6255228;22;20430;-93
2021/09/23 14:26:28;;;;;;;9.60;3.10;;;35.00;33.90;;;;;;6279127;22;20024;-89
2021/09/23 14:29:16;;;;;;;5.53;2.65;;;34.40;35.80;;;;;;6258164;22;20027;-91
2021/09/23 14:32:06;;;;;;;5.28;2.38;;;34.20;37.40;;;;;;6278791;22;20032;-90
2021/09/23 14:34:58;;;;;;;11.70;5.15;;;34.00;37.60;;;;;;6258603;22;20024;-91
2021/09/23 14:37:46;;;;;;;7.78;3.65;;;34.10;37.90;;;;;;6276588;22;20276;-91
2021/09/23 14:40:36;;;;;;;4.65;3.03;;;34.00;38.10;;;;;;6251858;22;20047;-91
2021/09/23 14:43:24;;;;;;;7.32;3.03;;;33.80;37.10;;;;;;6273942;22;20103;-90
2021/09/23 14:46:22;;;;;;;5.15;2.70;;;33.60;37.80;;;;;;6277173;22;20024;-91
2021/09/23 14:49:11;;;;;;;20.23;8.18;;;33.30;37.10;;;;;;6275629;22;20032;-92
2021/09/23 14:51:58;;;;;;;6.32;2.60;;;33.30;37.70;;;;;;6273759;22;20054;-91
2021/09/23 14:54:49;;;;;;;7.18;2.85;;;33.20;36.90;;;;;;6253737;22;20026;-91
2021/09/23 14:57:36;;;;;;;12.43;6.10;;;33.20;36.80;;;;;;6275206;22;20024;-92
2021/09/23 15:00:24;;;;;;;8.70;4.28;;;32.80;36.60;;;;;;6277332;22;20023;-90
2021/09/23 15:03:14;;;;;;;8.07;3.53;;;32.70;36.10;;;;;;6273555;22;20059;-90
2021/09/23 15:06:04;;;;;;;5.47;2.85;;;33.30;34.60;;;;;;6277357;22;20028;-91
2021/09/23 15:08:52;;;;;;;6.97;3.70;;;32.80;34.70;;;;;;6275602;22;20102;-90